METAR & TAF

RJTE 200650Z 23010KT 190V270 9999 FEW020 12/02 Q1015 RMK 1CU020 A2999
No TAF found for RJTE